Kynouria — V7VY6 — position and weather

sailwx.info

Track history (hours):
 
Tides and Currents Weather Stations Pressure Air Temp Water Temp Dewpoint Dewpoint Depression Visibility Wind Speed Wind Dir Waves Ship Positions

Kynouria

Last reported at 2014-Dec-09 10:28 UTC. Time now 2014-Dec-18 16:24 UTC.
Position N 01°16' E 104°12'.
Warning: this ship's position is 9 days out of date.

Length 229 m; draft 14.8 m.

Type: Cargo ship. MMSI: 538004243.

Date/timePositionNaut miles runAvg speedWind from/ knotsBaromVisibWave heightAir tempDewpointWater temp
2014-Dec-09 10:28N 01°16' E 104°12'1112.4
2014-Dec-09 09:33N 01°16' E 104°01'1 1.0
2014-Dec-09 08:08N 01°18' E 104°00'0 0.1
2014-Dec-09 07:32N 01°18' E 104°00'0 0.0
2014-Dec-09 06:20N 01°18' E 104°00'0 0.1
2014-Dec-09 05:32N 01°18' E 104°00'0 0.2
2014-Dec-09 04:26N 01°18' E 104°00'0 0.1
2014-Dec-09 03:26N 01°18' E 104°00'0 0.1
2014-Dec-09 02:32N 01°18' E 104°00'0 0.0
2014-Dec-09 01:32N 01°18' E 104°00'0 0.0
2014-Dec-08 23:32N 01°18' E 104°00'0 0.0
2014-Dec-08 22:14N 01°18' E 104°00'0 0.1
2014-Dec-08 21:32N 01°18' E 104°00'0 0.0
2014-Dec-08 20:32N 01°18' E 104°00'0 0.1
2014-Dec-08 19:32N 01°18' E 104°00'1 0.5
2014-Dec-08 18:33N 01°17' E 104°00'4 3.5
2014-Dec-08 17:30N 01°14' E 103°58'8 8.6
2014-Dec-08 16:33N 01°11' E 103°50'  
Track history (hours):
 
Tides and Currents Weather Stations Pressure Air Temp Water Temp Dewpoint Dewpoint Depression Visibility Wind Speed Wind Dir Waves Ship Positions

Kynouria

Last reported at 2014-Dec-09 10:28 UTC. Time now 2014-Dec-18 16:24 UTC.
Position N 01°16' E 104°12'.
Warning: this ship's position is 9 days out of date.

Length 229 m; draft 14.8 m.

Type: Cargo ship. MMSI: 538004243.

Date/timePositionNaut miles runAvg speedWind from/ knotsBaromVisibWave heightAir tempDewpointWater temp
2014-Dec-09 10:28N 01°16' E 104°12'1112.4
2014-Dec-09 09:33N 01°16' E 104°01'1 1.0
2014-Dec-09 08:08N 01°18' E 104°00'0 0.1
2014-Dec-09 07:32N 01°18' E 104°00'0 0.0
2014-Dec-09 06:20N 01°18' E 104°00'0 0.1
2014-Dec-09 05:32N 01°18' E 104°00'0 0.2
2014-Dec-09 04:26N 01°18' E 104°00'0 0.1
2014-Dec-09 03:26N 01°18' E 104°00'0 0.1
2014-Dec-09 02:32N 01°18' E 104°00'0 0.0
2014-Dec-09 01:32N 01°18' E 104°00'0 0.0
2014-Dec-08 23:32N 01°18' E 104°00'0 0.0
2014-Dec-08 22:14N 01°18' E 104°00'0 0.1
2014-Dec-08 21:32N 01°18' E 104°00'0 0.0
2014-Dec-08 20:32N 01°18' E 104°00'0 0.1
2014-Dec-08 19:32N 01°18' E 104°00'1 0.5
2014-Dec-08 18:33N 01°17' E 104°00'4 3.5
2014-Dec-08 17:30N 01°14' E 103°58'8 8.6
2014-Dec-08 16:33N 01°11' E 103°50'  

Dump ship's entire track history